FBJ weather

Familia Baldenebro Jaimes Airport
Ciudad Obregon, Sonora, Mexico

Public forecast

Using degrees Celsius for public forecast. Weather courtesy of forecast.io.

Closest aviation weather report (METAR) to Familia Baldenebro Jaimes Airport

Closest report is Ciudad Obregón International Airport, 5.7 nm (10.5 km) E. Retrieved 2020/05/29 21:46 UTC (48 minutes ago):

MMCN 292146Z 22011KT 10SM SKC 34/20 A2980 RMK HZY

Closest aviation forecast (TAF) to Familia Baldenebro Jaimes Airport

Closest forecast is Ciudad Obregón International Airport, 5.7 nm (10.5 km) E. Retrieved 2020/05/29 18:16 UTC (4 hours ago):

TAF MMCN 291715Z 2918/3018 24010KT P6SM SCT020 BECMG 3000/3001 00000KT FM301500 29010KT P6SM SKC